Fair Oaks, Indiana
Current Conditions -  °F | °C
As of 7:35 PM on Monday 20 Oct 2014 (Local Time) from KRZL Reporting Station
Scattered Clouds Scattered Clouds  
Wind Chill: 54°   Ceiling: Unl
Heat Index: 54°   Visibility: 10mi
Dew Point: 50°   Wind: 9mph
Humidity: 88%   Direction: 360°N
Pressure: 29.95"   Gusts: NA
Location:  41.08°N, 87.26°W
Report Text: KRZL 210035Z AUTO 36008KT 10SM SCT050 12/10 A2995 RMK AO2 LTG DSNT E
Loading
Personal Weather Stations






























Interactive Weather Map
Tropical Storm Tracking
New forecast layout! Learn more

10-Day Weather Forecast

Advertisements
Track Severe Weather on mobile